sensor_id;sensor_type;location;lat;lon;timestamp;pressure;altitude;pressure_sealevel;temperature;humidity
75650;BME280;64245;51.282;22.494;2023-08-30T00:00:43;97984.59;;;18.72;100.00
75650;BME280;64245;51.282;22.494;2023-08-30T00:03:32;97973.91;;;18.70;100.00
75650;BME280;64245;51.282;22.494;2023-08-30T00:06:05;97963.09;;;18.63;100.00
75650;BME280;64245;51.282;22.494;2023-08-30T00:08:32;97951.94;;;18.65;100.00
75650;BME280;64245;51.282;22.494;2023-08-30T00:10:58;97956.34;;;18.66;100.00
75650;BME280;64245;51.282;22.494;2023-08-30T00:13:31;97947.06;;;18.67;100.00
75650;BME280;64245;51.282;22.494;2023-08-30T00:15:58;97956.56;;;18.65;100.00
75650;BME280;64245;51.282;22.494;2023-08-30T00:18:24;97977.56;;;18.64;100.00
75650;BME280;64245;51.282;22.494;2023-08-30T00:20:50;97987.84;;;18.62;100.00
75650;BME280;64245;51.282;22.494;2023-08-30T00:23:15;97999.22;;;18.59;100.00
75650;BME280;64245;51.282;22.494;2023-08-30T00:25:42;97983.28;;;18.56;100.00
75650;BME280;64245;51.282;22.494;2023-08-30T00:28:08;98004.34;;;18.67;100.00
75650;BME280;64245;51.282;22.494;2023-08-30T00:30:33;97998.16;;;18.78;100.00
75650;BME280;64245;51.282;22.494;2023-08-30T00:32:59;97985.19;;;18.74;100.00
75650;BME280;64245;51.282;22.494;2023-08-30T00:35:25;97973.59;;;18.78;100.00
75650;BME280;64245;51.282;22.494;2023-08-30T00:37:50;97952.06;;;18.70;100.00
75650;BME280;64245;51.282;22.494;2023-08-30T00:40:16;97952.47;;;18.74;100.00
75650;BME280;64245;51.282;22.494;2023-08-30T00:42:42;97933.22;;;18.69;100.00
75650;BME280;64245;51.282;22.494;2023-08-30T00:45:08;97933.22;;;18.69;100.00
75650;BME280;64245;51.282;22.494;2023-08-30T00:47:34;97905.59;;;18.65;100.00
75650;BME280;64245;51.282;22.494;2023-08-30T00:50:01;97896.56;;;18.65;100.00
75650;BME280;64245;51.282;22.494;2023-08-30T00:52:27;97893.97;;;18.70;100.00
75650;BME280;64245;51.282;22.494;2023-08-30T00:54:53;97894.94;;;18.75;100.00
75650;BME280;64245;51.282;22.494;2023-08-30T00:57:18;97891.78;;;18.78;100.00
75650;BME280;64245;51.282;22.494;2023-08-30T00:59:44;97890.13;;;18.89;100.00
75650;BME280;64245;51.282;22.494;2023-08-30T01:02:10;97898.25;;;18.95;100.00
75650;BME280;64245;51.282;22.494;2023-08-30T01:04:36;97909.75;;;18.97;100.00
75650;BME280;64245;51.282;22.494;2023-08-30T01:07:01;97911.19;;;19.00;100.00
75650;BME280;64245;51.282;22.494;2023-08-30T01:09:27;97914.47;;;18.90;100.00
75650;BME280;64245;51.282;22.494;2023-08-30T01:14:40;97937.22;;;18.84;100.00
75650;BME280;64245;51.282;22.494;2023-08-30T01:17:10;97955.56;;;18.77;100.00
75650;BME280;64245;51.282;22.494;2023-08-30T01:19:42;97951.63;;;18.73;100.00
75650;BME280;64245;51.282;22.494;2023-08-30T01:22:19;97963.97;;;18.76;100.00
75650;BME280;64245;51.282;22.494;2023-08-30T01:27:40;97955.41;;;18.72;100.00
75650;BME280;64245;51.282;22.494;2023-08-30T01:30:08;97964.19;;;18.74;100.00
75650;BME280;64245;51.282;22.494;2023-08-30T01:32:34;97951.25;;;18.70;100.00
75650;BME280;64245;51.282;22.494;2023-08-30T01:35:02;97949.13;;;18.72;100.00
75650;BME280;64245;51.282;22.494;2023-08-30T01:37:29;97916.53;;;18.77;100.00
75650;BME280;64245;51.282;22.494;2023-08-30T01:39:56;97906.94;;;18.74;100.00
75650;BME280;64245;51.282;22.494;2023-08-30T01:42:24;97890.41;;;18.69;100.00
75650;BME280;64245;51.282;22.494;2023-08-30T01:44:52;97874.19;;;18.74;100.00
75650;BME280;64245;51.282;22.494;2023-08-30T01:47:20;97829.72;;;18.74;100.00
75650;BME280;64245;51.282;22.494;2023-08-30T01:49:48;97802.31;;;18.69;100.00
75650;BME280;64245;51.282;22.494;2023-08-30T01:52:15;97810.38;;;18.63;100.00
75650;BME280;64245;51.282;22.494;2023-08-30T01:54:42;97859.47;;;18.63;100.00
75650;BME280;64245;51.282;22.494;2023-08-30T01:57:08;97876.44;;;18.66;100.00
75650;BME280;64245;51.282;22.494;2023-08-30T01:59:34;97875.72;;;18.70;100.00
75650;BME280;64245;51.282;22.494;2023-08-30T02:02:00;97882.84;;;18.71;100.00
75650;BME280;64245;51.282;22.494;2023-08-30T05:50:13;97952.63;;;20.39;100.00
75650;BME280;64245;51.282;22.494;2023-08-30T05:52:39;97959.84;;;20.56;100.00
75650;BME280;64245;51.282;22.494;2023-08-30T05:55:09;97953.50;;;20.67;100.00
75650;BME280;64245;51.282;22.494;2023-08-30T05:57:35;97953.31;;;20.46;100.00
75650;BME280;64245;51.282;22.494;2023-08-30T06:00:01;97953.06;;;20.47;100.00
75650;BME280;64245;51.282;22.494;2023-08-30T06:02:27;97963.88;;;20.54;100.00
75650;BME280;64245;51.282;22.494;2023-08-30T06:04:52;97965.91;;;20.47;100.00
75650;BME280;64245;51.282;22.494;2023-08-30T06:07:18;97960.56;;;20.52;100.00
75650;BME280;64245;51.282;22.494;2023-08-30T06:09:44;97963.72;;;20.60;100.00
75650;BME280;64245;51.282;22.494;2023-08-30T06:12:10;97953.41;;;20.51;100.00
75650;BME280;64245;51.282;22.494;2023-08-30T06:14:35;97958.53;;;20.59;100.00
75650;BME280;64245;51.282;22.494;2023-08-30T06:17:01;97970.94;;;20.38;100.00
75650;BME280;64245;51.282;22.494;2023-08-30T06:19:27;97959.84;;;20.45;100.00
75650;BME280;64245;51.282;22.494;2023-08-30T06:21:53;97967.81;;;20.58;100.00
75650;BME280;64245;51.282;22.494;2023-08-30T06:24:19;97975.25;;;20.74;100.00
75650;BME280;64245;51.282;22.494;2023-08-30T06:26:44;97973.94;;;20.77;100.00
75650;BME280;64245;51.282;22.494;2023-08-30T06:29:10;97971.09;;;20.72;100.00
75650;BME280;64245;51.282;22.494;2023-08-30T06:31:36;97983.06;;;20.94;100.00
75650;BME280;64245;51.282;22.494;2023-08-30T06:34:02;97983.88;;;20.94;100.00
75650;BME280;64245;51.282;22.494;2023-08-30T06:36:28;97987.94;;;20.92;100.00
75650;BME280;64245;51.282;22.494;2023-08-30T06:38:53;97983.44;;;20.86;100.00
75650;BME280;64245;51.282;22.494;2023-08-30T06:41:19;97981.09;;;20.78;100.00
75650;BME280;64245;51.282;22.494;2023-08-30T06:43:45;97984.66;;;20.78;100.00
75650;BME280;64245;51.282;22.494;2023-08-30T06:46:11;97985.81;;;20.94;100.00
75650;BME280;64245;51.282;22.494;2023-08-30T06:48:36;97974.94;;;20.99;100.00
75650;BME280;64245;51.282;22.494;2023-08-30T06:51:02;97978.50;;;20.99;100.00
75650;BME280;64245;51.282;22.494;2023-08-30T06:53:31;97986.94;;;21.10;100.00
75650;BME280;64245;51.282;22.494;2023-08-30T06:55:58;97984.25;;;20.86;100.00
75650;BME280;64245;51.282;22.494;2023-08-30T06:58:25;97983.31;;;20.92;100.00
75650;BME280;64245;51.282;22.494;2023-08-30T07:00:51;97987.16;;;21.08;100.00
75650;BME280;64245;51.282;22.494;2023-08-30T07:03:16;97995.16;;;20.98;100.00
75650;BME280;64245;51.282;22.494;2023-08-30T07:05:42;97996.25;;;20.97;100.00
75650;BME280;64245;51.282;22.494;2023-08-30T07:08:09;97991.03;;;20.84;100.00
75650;BME280;64245;51.282;22.494;2023-08-30T07:10:35;97991.69;;;20.74;100.00
75650;BME280;64245;51.282;22.494;2023-08-30T07:13:00;97990.13;;;20.78;100.00
75650;BME280;64245;51.282;22.494;2023-08-30T07:15:26;97995.22;;;20.86;100.00
75650;BME280;64245;51.282;22.494;2023-08-30T07:17:52;97988.00;;;20.68;100.00
75650;BME280;64245;51.282;22.494;2023-08-30T07:20:18;97990.63;;;20.63;100.00
75650;BME280;64245;51.282;22.494;2023-08-30T07:22:43;97984.31;;;20.75;100.00
75650;BME280;64245;51.282;22.494;2023-08-30T07:25:09;97989.78;;;20.75;100.00
75650;BME280;64245;51.282;22.494;2023-08-30T07:27:39;97990.56;;;20.87;100.00
75650;BME280;64245;51.282;22.494;2023-08-30T07:30:05;97993.78;;;20.95;100.00
75650;BME280;64245;51.282;22.494;2023-08-30T07:32:31;97992.69;;;20.96;100.00
75650;BME280;64245;51.282;22.494;2023-08-30T07:34:57;97998.88;;;20.92;100.00
75650;BME280;64245;51.282;22.494;2023-08-30T07:37:22;97993.91;;;20.89;100.00
75650;BME280;64245;51.282;22.494;2023-08-30T07:39:48;97988.09;;;20.74;100.00
75650;BME280;64245;51.282;22.494;2023-08-30T07:42:14;97989.66;;;20.69;100.00
75650;BME280;64245;51.282;22.494;2023-08-30T07:44:43;97991.44;;;20.64;100.00
75650;BME280;64245;51.282;22.494;2023-08-30T07:47:08;97996.31;;;20.74;100.00
75650;BME280;64245;51.282;22.494;2023-08-30T07:49:34;97997.53;;;20.54;100.00
75650;BME280;64245;51.282;22.494;2023-08-30T07:52:00;97996.09;;;20.63;100.00
75650;BME280;64245;51.282;22.494;2023-08-30T07:54:26;98005.75;;;20.54;100.00
75650;BME280;64245;51.282;22.494;2023-08-30T07:56:51;97999.44;;;20.54;100.00
75650;BME280;64245;51.282;22.494;2023-08-30T07:59:17;97980.41;;;20.59;100.00
75650;BME280;64245;51.282;22.494;2023-08-30T08:01:43;97982.66;;;20.62;100.00
75650;BME280;64245;51.282;22.494;2023-08-30T08:04:08;97989.19;;;20.73;100.00
75650;BME280;64245;51.282;22.494;2023-08-30T08:06:34;97981.91;;;20.78;100.00
75650;BME280;64245;51.282;22.494;2023-08-30T08:09:00;97981.16;;;20.94;100.00
75650;BME280;64245;51.282;22.494;2023-08-30T08:11:26;97977.06;;;21.09;100.00
75650;BME280;64245;51.282;22.494;2023-08-30T08:13:52;97979.66;;;21.15;100.00
75650;BME280;64245;51.282;22.494;2023-08-30T08:16:17;97976.56;;;21.12;100.00
75650;BME280;64245;51.282;22.494;2023-08-30T08:18:43;97972.47;;;21.26;100.00
75650;BME280;64245;51.282;22.494;2023-08-30T08:21:09;97972.28;;;21.61;100.00
75650;BME280;64245;51.282;22.494;2023-08-30T08:23:35;97972.72;;;21.86;99.30
75650;BME280;64245;51.282;22.494;2023-08-30T08:26:01;97965.94;;;22.05;96.03
75650;BME280;64245;51.282;22.494;2023-08-30T08:28:28;97969.84;;;21.93;97.71
75650;BME280;64245;51.282;22.494;2023-08-30T08:30:54;97966.56;;;21.62;97.21
75650;BME280;64245;51.282;22.494;2023-08-30T08:33:20;97972.25;;;21.89;95.40
75650;BME280;64245;51.282;22.494;2023-08-30T08:35:49;97977.66;;;22.01;95.92
75650;BME280;64245;51.282;22.494;2023-08-30T08:38:15;97963.94;;;22.18;92.83
75650;BME280;64245;51.282;22.494;2023-08-30T08:40:40;97969.78;;;22.04;96.12
75650;BME280;64245;51.282;22.494;2023-08-30T08:43:06;97963.22;;;22.05;92.88
75650;BME280;64245;51.282;22.494;2023-08-30T08:45:35;97968.75;;;22.27;96.11
75650;BME280;64245;51.282;22.494;2023-08-30T08:48:03;97970.88;;;22.42;95.62
75650;BME280;64245;51.282;22.494;2023-08-30T08:50:29;97956.84;;;22.60;93.04
75650;BME280;64245;51.282;22.494;2023-08-30T08:52:56;97946.78;;;22.66;93.05
75650;BME280;64245;51.282;22.494;2023-08-30T08:55:22;97961.34;;;22.66;91.54
75650;BME280;64245;51.282;22.494;2023-08-30T08:57:48;97970.50;;;22.55;91.68
75650;BME280;64245;51.282;22.494;2023-08-30T09:00:14;97964.75;;;22.57;93.68
75650;BME280;64245;51.282;22.494;2023-08-30T09:02:42;97955.81;;;22.83;95.02
75650;BME280;64245;51.282;22.494;2023-08-30T09:05:10;97958.34;;;23.12;92.26
75650;BME280;64245;51.282;22.494;2023-08-30T09:07:36;97953.56;;;23.02;93.52
75650;BME280;64245;51.282;22.494;2023-08-30T09:10:02;97947.44;;;22.95;95.56
75650;BME280;64245;51.282;22.494;2023-08-30T09:12:32;97959.75;;;22.92;93.08
75650;BME280;64245;51.282;22.494;2023-08-30T09:14:59;97949.31;;;22.72;89.12
75650;BME280;64245;51.282;22.494;2023-08-30T09:17:38;97962.16;;;22.45;92.37
75650;BME280;64245;51.282;22.494;2023-08-30T09:20:08;97967.72;;;22.33;94.02
75650;BME280;64245;51.282;22.494;2023-08-30T09:22:42;97957.81;;;22.11;93.43
75650;BME280;64245;51.282;22.494;2023-08-30T09:25:10;97963.19;;;22.61;93.26
75650;BME280;64245;51.282;22.494;2023-08-30T09:27:37;97967.41;;;22.90;96.71
75650;BME280;64245;51.282;22.494;2023-08-30T09:30:07;97964.09;;;22.66;91.90
75650;BME280;64245;51.282;22.494;2023-08-30T09:32:42;97968.63;;;22.39;92.83
75650;BME280;64245;51.282;22.494;2023-08-30T09:35:08;97969.53;;;22.45;93.28
75650;BME280;64245;51.282;22.494;2023-08-30T09:37:34;97973.00;;;22.18;92.45
75650;BME280;64245;51.282;22.494;2023-08-30T09:40:00;97962.63;;;22.03;97.92
75650;BME280;64245;51.282;22.494;2023-08-30T09:42:26;97967.84;;;22.05;95.44
75650;BME280;64245;51.282;22.494;2023-08-30T09:44:52;97962.66;;;22.42;91.50
75650;BME280;64245;51.282;22.494;2023-08-30T09:47:18;97956.44;;;22.52;89.39
75650;BME280;64245;51.282;22.494;2023-08-30T09:49:45;97960.50;;;22.66;87.79
75650;BME280;64245;51.282;22.494;2023-08-30T09:52:14;97978.16;;;22.92;88.87
75650;BME280;64245;51.282;22.494;2023-08-30T09:54:41;97970.94;;;23.07;86.88
75650;BME280;64245;51.282;22.494;2023-08-30T09:57:10;97970.13;;;23.07;86.03
75650;BME280;64245;51.282;22.494;2023-08-30T09:59:36;97970.25;;;23.49;89.99
75650;BME280;64245;51.282;22.494;2023-08-30T10:02:03;97975.09;;;23.59;87.05
75650;BME280;64245;51.282;22.494;2023-08-30T10:04:31;97977.19;;;23.52;81.41
75650;BME280;64245;51.282;22.494;2023-08-30T10:06:58;97980.41;;;23.43;82.35
75650;BME280;64245;51.282;22.494;2023-08-30T10:09:24;97979.28;;;23.66;81.75
75650;BME280;64245;51.282;22.494;2023-08-30T10:11:51;97988.50;;;23.82;81.88
75650;BME280;64245;51.282;22.494;2023-08-30T10:14:17;97978.75;;;24.01;85.29
75650;BME280;64245;51.282;22.494;2023-08-30T10:16:47;97994.72;;;23.72;84.54
75650;BME280;64245;51.282;22.494;2023-08-30T10:21:48;97985.00;;;23.60;83.60
75650;BME280;64245;51.282;22.494;2023-08-30T10:24:19;97992.25;;;23.22;82.25
75650;BME280;64245;51.282;22.494;2023-08-30T10:26:48;98005.22;;;23.27;82.05
75650;BME280;64245;51.282;22.494;2023-08-30T10:29:15;97997.06;;;22.88;84.31
75650;BME280;64245;51.282;22.494;2023-08-30T10:31:42;98001.53;;;22.94;82.97
75650;BME280;64245;51.282;22.494;2023-08-30T10:34:16;97995.41;;;22.87;83.42
75650;BME280;64245;51.282;22.494;2023-08-30T10:36:56;97995.78;;;22.96;84.22
75650;BME280;64245;51.282;22.494;2023-08-30T10:39:32;98001.59;;;22.99;87.52
75650;BME280;64245;51.282;22.494;2023-08-30T10:41:59;97992.66;;;23.09;85.56
75650;BME280;64245;51.282;22.494;2023-08-30T10:44:24;97999.94;;;22.98;83.76
75650;BME280;64245;51.282;22.494;2023-08-30T10:46:54;97991.59;;;22.88;81.72
75650;BME280;64245;51.282;22.494;2023-08-30T10:49:20;98004.72;;;22.86;85.33
75650;BME280;64245;51.282;22.494;2023-08-30T10:51:55;97994.66;;;22.75;81.16
75650;BME280;64245;51.282;22.494;2023-08-30T10:54:21;98003.31;;;22.84;84.98
75650;BME280;64245;51.282;22.494;2023-08-30T10:56:56;97990.53;;;22.94;83.86
75650;BME280;64245;51.282;22.494;2023-08-30T10:59:25;97982.59;;;23.20;83.87
75650;BME280;64245;51.282;22.494;2023-08-30T11:01:52;97991.06;;;23.40;82.28
75650;BME280;64245;51.282;22.494;2023-08-30T11:04:18;97978.34;;;23.07;83.93
75650;BME280;64245;51.282;22.494;2023-08-30T11:06:45;97971.84;;;23.40;86.17
75650;BME280;64245;51.282;22.494;2023-08-30T11:09:15;97965.63;;;24.14;80.66
75650;BME280;64245;51.282;22.494;2023-08-30T11:11:49;97962.84;;;24.45;78.42
75650;BME280;64245;51.282;22.494;2023-08-30T11:14:16;97969.66;;;24.80;78.99
75650;BME280;64245;51.282;22.494;2023-08-30T11:16:42;97975.63;;;24.62;79.91
75650;BME280;64245;51.282;22.494;2023-08-30T11:19:09;97973.00;;;24.92;78.82
75650;BME280;64245;51.282;22.494;2023-08-30T11:21:40;97972.28;;;24.55;82.17
75650;BME280;64245;51.282;22.494;2023-08-30T11:24:08;97957.16;;;24.20;78.14
75650;BME280;64245;51.282;22.494;2023-08-30T11:26:34;97967.38;;;24.67;76.88
75650;BME280;64245;51.282;22.494;2023-08-30T11:29:07;97957.34;;;24.40;78.23
75650;BME280;64245;51.282;22.494;2023-08-30T11:31:33;97961.66;;;24.31;77.50
75650;BME280;64245;51.282;22.494;2023-08-30T11:33:59;97962.88;;;24.14;77.38
75650;BME280;64245;51.282;22.494;2023-08-30T11:36:28;97963.53;;;24.26;78.54
75650;BME280;64245;51.282;22.494;2023-08-30T11:38:55;97964.50;;;24.47;78.84
75650;BME280;64245;51.282;22.494;2023-08-30T11:41:21;97959.50;;;24.91;75.98
75650;BME280;64245;51.282;22.494;2023-08-30T11:43:47;97956.66;;;25.43;75.80
75650;BME280;64245;51.282;22.494;2023-08-30T11:46:14;97961.41;;;25.83;70.54
75650;BME280;64245;51.282;22.494;2023-08-30T11:48:40;97964.00;;;27.05;68.75
75650;BME280;64245;51.282;22.494;2023-08-30T11:51:07;97956.97;;;26.23;70.45
75650;BME280;64245;51.282;22.494;2023-08-30T11:53:33;97961.13;;;25.59;71.21
75650;BME280;64245;51.282;22.494;2023-08-30T11:56:00;97965.78;;;25.54;72.95
75650;BME280;64245;51.282;22.494;2023-08-30T11:58:33;97972.03;;;25.13;75.44
75650;BME280;64245;51.282;22.494;2023-08-30T12:00:59;97976.72;;;24.66;75.37
75650;BME280;64245;51.282;22.494;2023-08-30T12:03:28;97961.88;;;24.67;74.74
75650;BME280;64245;51.282;22.494;2023-08-30T12:05:55;97961.69;;;23.99;76.74
75650;BME280;64245;51.282;22.494;2023-08-30T12:08:24;97972.19;;;24.07;78.78
75650;BME280;64245;51.282;22.494;2023-08-30T12:10:50;97962.34;;;24.54;76.62
75650;BME280;64245;51.282;22.494;2023-08-30T12:13:29;97963.22;;;25.17;72.79
75650;BME280;64245;51.282;22.494;2023-08-30T12:15:57;97962.78;;;26.46;70.93
75650;BME280;64245;51.282;22.494;2023-08-30T12:18:24;97937.94;;;25.40;70.86
75650;BME280;64245;51.282;22.494;2023-08-30T12:20:57;97955.53;;;25.34;75.06
75650;BME280;64245;51.282;22.494;2023-08-30T12:23:24;97957.53;;;25.64;71.29
75650;BME280;64245;51.282;22.494;2023-08-30T12:26:11;97958.63;;;26.29;69.16
75650;BME280;64245;51.282;22.494;2023-08-30T12:28:40;97953.13;;;26.29;69.48
75650;BME280;64245;51.282;22.494;2023-08-30T12:31:06;97959.91;;;26.82;65.81
75650;BME280;64245;51.282;22.494;2023-08-30T12:33:33;97961.00;;;26.86;68.15
75650;BME280;64245;51.282;22.494;2023-08-30T12:36:00;97959.91;;;27.46;64.67
75650;BME280;64245;51.282;22.494;2023-08-30T12:38:29;97954.25;;;28.35;63.43
75650;BME280;64245;51.282;22.494;2023-08-30T12:40:55;97943.13;;;26.63;67.52
75650;BME280;64245;51.282;22.494;2023-08-30T12:43:22;97946.72;;;26.64;67.02
75650;BME280;64245;51.282;22.494;2023-08-30T12:45:49;97942.75;;;27.89;64.38
75650;BME280;64245;51.282;22.494;2023-08-30T12:48:16;97955.00;;;28.11;60.83
75650;BME280;64245;51.282;22.494;2023-08-30T12:50:48;97942.03;;;28.07;61.43
75650;BME280;64245;51.282;22.494;2023-08-30T12:53:14;97943.31;;;28.48;61.56
75650;BME280;64245;51.282;22.494;2023-08-30T12:55:43;97939.50;;;26.73;62.85
75650;BME280;64245;51.282;22.494;2023-08-30T12:58:09;97948.84;;;27.46;62.05
75650;BME280;64245;51.282;22.494;2023-08-30T13:00:35;97954.81;;;28.03;60.79
75650;BME280;64245;51.282;22.494;2023-08-30T13:03:01;97954.97;;;27.82;59.94
75650;BME280;64245;51.282;22.494;2023-08-30T13:05:29;97949.03;;;27.60;60.82
75650;BME280;64245;51.282;22.494;2023-08-30T13:08:00;97958.72;;;27.08;62.29
75650;BME280;64245;51.282;22.494;2023-08-30T13:10:26;97956.34;;;27.41;64.02
75650;BME280;64245;51.282;22.494;2023-08-30T13:12:52;97954.88;;;27.04;65.41
75650;BME280;64245;51.282;22.494;2023-08-30T13:15:18;97954.53;;;26.11;68.08
75650;BME280;64245;51.282;22.494;2023-08-30T13:17:43;97947.91;;;25.97;68.42
75650;BME280;64245;51.282;22.494;2023-08-30T13:20:10;97937.69;;;25.72;68.31
75650;BME280;64245;51.282;22.494;2023-08-30T13:22:36;97933.84;;;25.68;67.92
75650;BME280;64245;51.282;22.494;2023-08-30T13:25:04;97931.34;;;25.81;65.21
75650;BME280;64245;51.282;22.494;2023-08-30T13:27:30;97936.03;;;25.86;69.59
75650;BME280;64245;51.282;22.494;2023-08-30T13:29:56;97925.25;;;26.20;63.05
75650;BME280;64245;51.282;22.494;2023-08-30T13:32:25;97927.50;;;25.93;64.63
75650;BME280;64245;51.282;22.494;2023-08-30T13:34:51;97915.03;;;25.44;67.50
75650;BME280;64245;51.282;22.494;2023-08-30T13:37:16;97926.94;;;25.70;65.69
75650;BME280;64245;51.282;22.494;2023-08-30T13:39:45;97917.53;;;26.07;64.11
75650;BME280;64245;51.282;22.494;2023-08-30T13:42:11;97923.84;;;26.48;65.85
75650;BME280;64245;51.282;22.494;2023-08-30T13:44:37;97922.13;;;26.62;62.05
75650;BME280;64245;51.282;22.494;2023-08-30T13:47:06;97913.63;;;27.18;63.38
75650;BME280;64245;51.282;22.494;2023-08-30T13:49:32;97915.69;;;26.82;60.89
75650;BME280;64245;51.282;22.494;2023-08-30T13:51:57;97930.41;;;26.62;61.64
75650;BME280;64245;51.282;22.494;2023-08-30T13:54:27;97926.09;;;26.36;62.09
75650;BME280;64245;51.282;22.494;2023-08-30T13:56:56;97941.56;;;25.66;65.16
75650;BME280;64245;51.282;22.494;2023-08-30T13:59:22;97934.66;;;25.63;69.38
75650;BME280;64245;51.282;22.494;2023-08-30T14:01:48;97949.84;;;26.11;64.29
75650;BME280;64245;51.282;22.494;2023-08-30T14:04:14;97950.09;;;26.25;67.72
75650;BME280;64245;51.282;22.494;2023-08-30T14:06:39;97948.75;;;25.97;69.02
75650;BME280;64245;51.282;22.494;2023-08-30T14:09:06;97954.25;;;25.97;66.72
75650;BME280;64245;51.282;22.494;2023-08-30T14:11:34;97941.56;;;25.71;68.21
75650;BME280;64245;51.282;22.494;2023-08-30T14:14:02;97957.47;;;25.33;68.97
75650;BME280;64245;51.282;22.494;2023-08-30T14:16:29;97948.94;;;25.40;72.01
75650;BME280;64245;51.282;22.494;2023-08-30T14:18:55;97946.19;;;25.40;68.98
75650;BME280;64245;51.282;22.494;2023-08-30T14:21:25;97945.97;;;25.67;70.44
75650;BME280;64245;51.282;22.494;2023-08-30T14:23:52;97947.91;;;25.66;72.92
75650;BME280;64245;51.282;22.494;2023-08-30T14:26:17;97953.38;;;25.61;72.12
75650;BME280;64245;51.282;22.494;2023-08-30T14:28:44;97954.25;;;25.82;68.96
75650;BME280;64245;51.282;22.494;2023-08-30T14:31:10;97955.00;;;25.42;69.33
75650;BME280;64245;51.282;22.494;2023-08-30T14:33:37;97952.00;;;25.54;67.25
75650;BME280;64245;51.282;22.494;2023-08-30T14:36:09;97954.50;;;26.26;66.35
75650;BME280;64245;51.282;22.494;2023-08-30T14:38:39;97948.44;;;26.14;67.55
75650;BME280;64245;51.282;22.494;2023-08-30T14:41:05;97948.16;;;25.80;66.91
75650;BME280;64245;51.282;22.494;2023-08-30T14:43:34;97952.31;;;25.88;66.71
75650;BME280;64245;51.282;22.494;2023-08-30T14:46:05;97934.94;;;25.72;71.86
75650;BME280;64245;51.282;22.494;2023-08-30T14:48:32;97945.16;;;25.76;69.69
75650;BME280;64245;51.282;22.494;2023-08-30T14:50:59;97940.16;;;25.99;73.05
75650;BME280;64245;51.282;22.494;2023-08-30T14:53:31;97948.81;;;27.02;66.47
75650;BME280;64245;51.282;22.494;2023-08-30T14:55:56;97940.13;;;26.55;67.17
75650;BME280;64245;51.282;22.494;2023-08-30T14:58:22;97950.34;;;26.19;72.83
75650;BME280;64245;51.282;22.494;2023-08-30T15:00:55;97937.97;;;25.70;73.67
75650;BME280;64245;51.282;22.494;2023-08-30T15:03:21;97930.19;;;25.32;72.49
75650;BME280;64245;51.282;22.494;2023-08-30T15:05:56;97926.97;;;24.30;73.96
75650;BME280;64245;51.282;22.494;2023-08-30T15:08:23;97926.38;;;24.23;77.90
75650;BME280;64245;51.282;22.494;2023-08-30T15:10:52;97925.84;;;24.73;75.83
75650;BME280;64245;51.282;22.494;2023-08-30T15:13:17;97928.78;;;25.24;70.01
75650;BME280;64245;51.282;22.494;2023-08-30T15:15:43;97935.69;;;25.32;69.89
75650;BME280;64245;51.282;22.494;2023-08-30T15:18:12;97925.84;;;25.66;71.15
75650;BME280;64245;51.282;22.494;2023-08-30T15:20:41;97926.63;;;25.62;71.44
75650;BME280;64245;51.282;22.494;2023-08-30T15:23:14;97935.72;;;25.47;72.09
75650;BME280;64245;51.282;22.494;2023-08-30T15:25:49;97921.63;;;25.43;72.53
75650;BME280;64245;51.282;22.494;2023-08-30T15:28:17;97927.22;;;25.89;71.47
75650;BME280;64245;51.282;22.494;2023-08-30T15:30:43;97914.22;;;25.39;73.49
75650;BME280;64245;51.282;22.494;2023-08-30T15:33:09;97929.94;;;25.48;75.03
75650;BME280;64245;51.282;22.494;2023-08-30T15:35:39;97931.81;;;25.28;73.94
75650;BME280;64245;51.282;22.494;2023-08-30T15:38:09;97941.13;;;25.01;74.83
75650;BME280;64245;51.282;22.494;2023-08-30T15:40:34;97943.44;;;24.25;78.90
75650;BME280;64245;51.282;22.494;2023-08-30T15:43:05;97957.25;;;23.61;81.73
75650;BME280;64245;51.282;22.494;2023-08-30T15:45:31;97951.50;;;23.68;81.57
75650;BME280;64245;51.282;22.494;2023-08-30T15:47:57;97951.38;;;23.26;83.46
75650;BME280;64245;51.282;22.494;2023-08-30T15:50:22;97945.75;;;22.72;86.73
75650;BME280;64245;51.282;22.494;2023-08-30T15:52:48;97958.38;;;22.73;87.23
75650;BME280;64245;51.282;22.494;2023-08-30T15:55:14;97958.50;;;22.78;87.34
75650;BME280;64245;51.282;22.494;2023-08-30T15:57:40;97964.41;;;22.92;86.82
75650;BME280;64245;51.282;22.494;2023-08-30T16:00:06;97963.50;;;22.64;86.83
75650;BME280;64245;51.282;22.494;2023-08-30T16:02:33;97966.66;;;22.18;88.79
75650;BME280;64245;51.282;22.494;2023-08-30T16:04:58;97963.94;;;22.18;89.32
75650;BME280;64245;51.282;22.494;2023-08-30T16:07:24;97957.81;;;22.11;89.81
75650;BME280;64245;51.282;22.494;2023-08-30T16:09:50;97968.34;;;22.02;90.40
75650;BME280;64245;51.282;22.494;2023-08-30T16:12:15;97957.63;;;22.17;90.00
75650;BME280;64245;51.282;22.494;2023-08-30T16:14:42;97965.69;;;22.07;90.52
75650;BME280;64245;51.282;22.494;2023-08-30T16:17:07;97972.50;;;21.88;92.11
75650;BME280;64245;51.282;22.494;2023-08-30T16:19:33;97964.91;;;21.78;93.17
75650;BME280;64245;51.282;22.494;2023-08-30T16:22:02;97955.94;;;21.83;93.48
75650;BME280;64245;51.282;22.494;2023-08-30T16:24:28;97957.19;;;21.75;93.58
75650;BME280;64245;51.282;22.494;2023-08-30T16:26:54;97954.28;;;21.48;95.78
75650;BME280;64245;51.282;22.494;2023-08-30T16:29:22;97955.75;;;21.39;96.44
75650;BME280;64245;51.282;22.494;2023-08-30T16:31:48;97952.25;;;21.27;97.20
75650;BME280;64245;51.282;22.494;2023-08-30T16:34:20;97949.75;;;21.25;97.25
75650;BME280;64245;51.282;22.494;2023-08-30T16:36:47;97962.63;;;21.13;97.86
75650;BME280;64245;51.282;22.494;2023-08-30T16:39:17;97967.66;;;21.04;98.45